Aviation Digital Data Service (ADDS)

Output produced by TAFs form (1153 UTC 28 April 2015)
found at http://aviationweather.gov/adds/tafs/
 
KLND 281128Z 2812/2912 VRB05KT P6SM SCT250 
     FM290200 25006KT P6SM SKC